Time;durP1;ratioP1;P1;durP2;ratioP2;P2;SDS_P1;SDS_P2;PMS_P1;PMS_P2;Temp;Humidity;BMP_temperature;BMP_pressure;BME280_temperature;BME280_humidity;BME280_pressure;Samples;Min_cycle;Max_cycle;Signal;HPM_P1;HPM_P2
2021/04/10 00:00:01;;;;;;;13.55;7.25;;;;;;;8.58;56.10;100492.72;4954240;28;20443;-75
2021/04/10 00:02:27;;;;;;;13.20;7.55;;;;;;;8.56;56.04;100500.69;4965049;28;20134;-75
2021/04/10 00:04:54;;;;;;;11.60;8.05;;;;;;;8.70;55.60;100493.84;4959037;28;20083;-74
2021/04/10 00:07:21;;;;;;;11.48;7.00;;;;;;;8.69;55.63;100495.63;4964892;28;20114;-74
2021/04/10 00:09:48;;;;;;;14.95;7.82;;;;;;;8.54;55.49;100497.25;4938021;28;20157;-75
2021/04/10 00:12:15;;;;;;;18.48;7.72;;;;;;;8.45;55.53;100497.75;4970468;28;20066;-74
2021/04/10 00:14:41;;;;;;;12.77;7.50;;;;;;;8.46;55.43;100495.97;4952303;28;20050;-74
2021/04/10 00:17:09;;;;;;;11.10;6.80;;;;;;;8.28;56.12;100495.97;4950250;28;20464;-75
2021/04/10 00:19:36;;;;;;;13.82;6.85;;;;;;;8.23;56.32;100490.09;4955661;28;20383;-74
2021/04/10 00:22:02;;;;;;;15.27;6.85;;;;;;;8.15;56.79;100491.41;4961867;28;20414;-74
2021/04/10 00:24:29;;;;;;;10.13;6.20;;;;;;;8.25;56.64;100501.38;4944812;28;20134;-74
2021/04/10 00:26:56;;;;;;;12.85;7.95;;;;;;;8.21;56.43;100510.31;4962850;28;20051;-74
2021/04/10 00:29:23;;;;;;;9.77;6.00;;;;;;;8.11;56.86;100512.56;4953447;28;20678;-74
2021/04/10 00:31:49;;;;;;;11.57;6.63;;;;;;;8.23;56.19;100503.22;4966937;28;20126;-74
2021/04/10 00:34:16;;;;;;;17.45;6.50;;;;;;;8.28;56.38;100511.69;4967967;28;20497;-74
2021/04/10 00:36:43;;;;;;;12.07;6.90;;;;;;;8.39;55.71;100499.84;4957036;28;20047;-74
2021/04/10 00:39:10;;;;;;;10.70;6.60;;;;;;;8.31;56.67;100506.31;4959268;28;20426;-74
2021/04/10 00:41:36;;;;;;;15.10;6.78;;;;;;;8.38;56.46;100506.03;4967208;28;20051;-74
2021/04/10 00:44:03;;;;;;;12.00;6.40;;;;;;;8.38;56.56;100511.28;4962458;28;20055;-74
2021/04/10 00:46:30;;;;;;;9.73;6.97;;;;;;;8.48;56.40;100508.09;4960297;28;20992;-74
2021/04/10 00:48:57;;;;;;;14.45;7.22;;;;;;;8.35;56.71;100509.63;4948158;28;20521;-73
2021/04/10 00:51:23;;;;;;;11.98;6.65;;;;;;;8.31;57.37;100506.31;4968850;28;20058;-73
2021/04/10 00:53:50;;;;;;;10.38;6.95;;;;;;;8.29;57.35;100502.94;4946957;28;20169;-73
2021/04/10 00:56:17;;;;;;;13.38;6.78;;;;;;;8.32;57.65;100504.53;4964326;28;20082;-73
2021/04/10 00:58:44;;;;;;;10.80;7.20;;;;;;;8.26;57.72;100492.59;4958806;28;20055;-73
2021/04/10 01:01:11;;;;;;;14.23;7.20;;;;;;;8.10;58.53;100496.91;4969697;28;20043;-73
2021/04/10 01:03:37;;;;;;;8.70;7.00;;;;;;;8.08;58.70;100497.00;4958004;28;20130;-74
2021/04/10 01:06:04;;;;;;;12.57;6.63;;;;;;;7.88;58.82;100489.28;4962560;28;20139;-73
2021/04/10 01:08:31;;;;;;;12.70;7.30;;;;;;;7.78;59.68;100473.16;4962904;28;20065;-73
2021/04/10 01:11:21;;;;;;;14.45;7.07;;;;;;;7.57;60.17;100472.47;4973885;28;20103;-73
2021/04/10 01:14:11;;;;;;;14.15;7.47;;;;;;;7.31;61.33;100478.09;4969731;28;20525;-73
2021/04/10 01:16:41;;;;;;;12.38;7.30;;;;;;;7.18;62.01;100484.84;4955127;28;20039;-73
2021/04/10 01:19:32;;;;;;;11.52;7.15;;;;;;;6.97;63.15;100491.91;4967285;28;20057;-73
2021/04/10 01:22:06;;;;;;;13.68;7.90;;;;;;;6.75;64.26;100497.28;4948064;28;20357;-73
2021/04/10 01:25:01;;;;;;;14.10;6.50;;;;;;;6.61;65.47;100490.03;4956810;28;20055;-73
2021/04/10 01:27:46;;;;;;;12.48;7.40;;;;;;;6.56;65.96;100489.41;4969090;28;20077;-73
2021/04/10 01:30:16;;;;;;;14.82;7.10;;;;;;;6.71;66.42;100491.34;4966593;28;20138;-73
2021/04/10 01:32:50;;;;;;;10.70;6.55;;;;;;;6.55;66.60;100480.72;4971800;28;20065;-73
2021/04/10 01:35:19;;;;;;;13.50;7.60;;;;;;;6.48;67.70;100494.97;4953354;28;20089;-74
2021/04/10 01:37:58;;;;;;;15.55;7.32;;;;;;;6.40;68.16;100491.88;4955491;28;20126;-73
2021/04/10 01:40:29;;;;;;;10.05;7.03;;;;;;;6.45;67.92;100489.88;4958372;28;20137;-73
2021/04/10 01:42:57;;;;;;;12.32;7.25;;;;;;;6.26;68.90;100478.50;4963634;28;20055;-73
2021/04/10 01:45:24;;;;;;;8.85;7.15;;;;;;;6.22;69.26;100483.06;4954054;28;20168;-73
2021/04/10 01:47:56;;;;;;;12.63;7.80;;;;;;;6.08;69.93;100488.88;4960816;28;20498;-73
2021/04/10 01:50:24;;;;;;;12.05;7.32;;;;;;;5.99;70.68;100494.50;4948354;28;20121;-74
2021/04/10 01:52:50;;;;;;;9.07;6.80;;;;;;;6.15;69.99;100494.69;4948478;28;20142;-73
2021/04/10 01:55:18;;;;;;;11.35;6.25;;;;;;;6.13;70.35;100499.13;4951979;28;20122;-73
2021/04/10 01:57:50;;;;;;;13.68;6.80;;;;;;;5.96;70.69;100491.16;4972643;28;20533;-73
2021/04/10 02:00:18;;;;;;;13.27;6.93;;;;;;;6.05;70.90;100503.81;4983277;28;20134;-73
2021/04/10 02:02:45;;;;;;;11.93;6.55;;;;;;;6.28;70.44;100498.47;4970017;28;20161;-73
2021/04/10 02:05:14;;;;;;;12.27;7.10;;;;;;;6.06;70.98;100492.44;4946180;28;20051;-75
2021/04/10 02:07:41;;;;;;;8.95;5.70;;;;;;;6.08;71.21;100493.25;4959828;28;20047;-73
2021/04/10 02:10:09;;;;;;;12.80;6.47;;;;;;;6.01;71.45;100491.81;4960837;28;20061;-73
2021/04/10 02:12:36;;;;;;;11.15;6.43;;;;;;;5.98;71.49;100500.59;4958620;28;20581;-73
2021/04/10 02:15:05;;;;;;;12.40;6.35;;;;;;;5.89;72.01;100506.19;4970747;28;20052;-73
2021/04/10 02:17:32;;;;;;;13.63;6.20;;;;;;;5.91;72.63;100513.97;4945907;28;20097;-74
2021/04/10 02:19:58;;;;;;;10.93;5.55;;;;;;;5.89;72.75;100510.56;4962188;28;20052;-73
2021/04/10 02:22:32;;;;;;;13.18;5.88;;;;;;;5.99;72.42;100512.78;4940571;28;20113;-74
2021/04/10 02:24:59;;;;;;;8.35;5.38;;;;;;;5.94;73.10;100514.72;4967467;28;20112;-73
2021/04/10 02:27:26;;;;;;;11.93;5.88;;;;;;;5.94;73.09;100513.84;4960581;28;20063;-73
2021/04/10 02:29:53;;;;;;;10.20;5.82;;;;;;;5.94;73.01;100512.09;4963262;28;20055;-73
2021/04/10 02:32:22;;;;;;;11.13;5.93;;;;;;;5.99;73.28;100518.00;4976563;28;20134;-73
2021/04/10 02:35:00;;;;;;;9.43;5.40;;;;;;;5.96;73.04;100528.56;4973705;28;20490;-73
2021/04/10 02:37:29;;;;;;;10.50;6.15;;;;;;;6.22;72.27;100529.25;4979146;28;20084;-73
2021/04/10 02:39:56;;;;;;;11.68;5.90;;;;;;;6.20;72.59;100525.84;4961680;28;20776;-73
2021/04/10 02:42:24;;;;;;;9.93;5.72;;;;;;;6.19;72.74;100525.00;4944829;28;20251;-73
2021/04/10 02:44:53;;;;;;;9.65;5.35;;;;;;;6.12;72.63;100517.47;4967231;28;20050;-73
2021/04/10 02:47:24;;;;;;;10.57;6.03;;;;;;;6.00;73.37;100524.94;4973569;28;20053;-73
2021/04/10 02:49:53;;;;;;;9.18;6.20;;;;;;;6.06;73.14;100527.28;4978738;28;20054;-73
2021/04/10 02:52:29;;;;;;;10.85;6.45;;;;;;;6.15;72.91;100526.03;4966144;28;20051;-72
2021/04/10 02:54:57;;;;;;;8.15;5.25;;;;;;;6.15;73.13;100530.41;4947023;28;20058;-73
2021/04/10 02:57:24;;;;;;;7.57;5.38;;;;;;;6.27;72.40;100527.28;4948308;28;20061;-73
2021/04/10 02:59:54;;;;;;;9.23;5.63;;;;;;;6.30;72.35;100524.53;4951588;28;20108;-73
2021/04/10 03:02:20;;;;;;;9.10;5.75;;;;;;;6.22;73.36;100526.66;4950144;28;20051;-73
2021/04/10 03:04:48;;;;;;;11.63;5.47;;;;;;;6.23;72.74;100523.97;4955961;28;20568;-73
2021/04/10 03:07:16;;;;;;;8.93;5.80;;;;;;;6.24;72.73;100523.03;4962257;28;20117;-74
2021/04/10 03:09:44;;;;;;;8.82;4.75;;;;;;;6.25;72.81;100516.03;4948618;28;20059;-73
2021/04/10 03:12:13;;;;;;;10.18;5.38;;;;;;;6.35;72.43;100512.13;4962955;28;20130;-73
2021/04/10 03:14:41;;;;;;;8.02;5.40;;;;;;;6.30;73.12;100511.47;4953468;28;20146;-73
2021/04/10 03:17:10;;;;;;;11.95;5.20;;;;;;;6.31;73.00;100519.25;4950752;28;20061;-73
2021/04/10 03:19:37;;;;;;;7.32;5.03;;;;;;;6.45;72.45;100521.28;4952998;28;20074;-73
2021/04/10 03:22:05;;;;;;;9.80;6.15;;;;;;;6.29;73.15;100531.53;4951981;28;20046;-74
2021/04/10 03:24:32;;;;;;;7.65;5.32;;;;;;;6.38;72.94;100529.44;4968141;28;20169;-74
2021/04/10 03:26:59;;;;;;;16.98;5.43;;;;;;;6.45;72.34;100534.34;4942159;28;20050;-73
2021/04/10 03:29:26;;;;;;;11.23;5.20;;;;;;;6.39;72.56;100542.44;4944005;28;20138;-73
2021/04/10 03:31:54;;;;;;;7.63;4.63;;;;;;;6.42;72.69;100536.22;4939600;28;20441;-73
2021/04/10 03:34:21;;;;;;;10.70;4.78;;;;;;;6.50;72.37;100532.38;4934628;28;20046;-73
2021/04/10 03:36:48;;;;;;;9.35;4.93;;;;;;;6.51;72.30;100530.59;4934053;28;20058;-73
2021/04/10 03:39:15;;;;;;;11.90;5.10;;;;;;;6.37;72.60;100539.06;4968686;28;20082;-73
2021/04/10 03:41:42;;;;;;;9.93;5.55;;;;;;;6.44;72.90;100550.06;4953423;28;20079;-73
2021/04/10 03:44:08;;;;;;;6.38;4.72;;;;;;;6.43;73.10;100546.63;4936653;28;20085;-73
2021/04/10 03:46:36;;;;;;;10.52;5.43;;;;;;;6.30;73.67;100555.91;4961233;28;20055;-73
2021/04/10 03:49:04;;;;;;;8.02;5.20;;;;;;;6.25;74.92;100558.72;4962976;28;20051;-74
2021/04/10 03:51:31;;;;;;;11.75;5.50;;;;;;;6.24;75.85;100551.78;4969491;28;20051;-73
2021/04/10 03:53:58;;;;;;;10.43;5.63;;;;;;;6.27;74.80;100554.28;4948906;28;20098;-73
2021/04/10 03:56:25;;;;;;;10.60;5.00;;;;;;;6.26;74.53;100563.06;4951972;28;20055;-74
2021/04/10 03:58:52;;;;;;;10.13;5.22;;;;;;;6.27;75.13;100561.28;4943977;28;20070;-73
2021/04/10 04:01:18;;;;;;;6.70;5.07;;;;;;;6.19;75.80;100566.81;4959181;28;20153;-74
2021/04/10 04:03:45;;;;;;;8.43;4.85;;;;;;;6.58;75.91;100566.06;4954637;28;20134;-73
2021/04/10 04:06:12;;;;;;;10.55;4.95;;;;;;;6.58;77.45;100574.75;4953895;28;20134;-74
2021/04/10 04:08:39;;;;;;;11.68;6.15;;;;;;;6.47;78.38;100576.09;4943040;28;20080;-73
2021/04/10 04:11:06;;;;;;;9.45;5.40;;;;;;;6.45;78.02;100576.19;4968472;28;20114;-73
2021/04/10 04:13:32;;;;;;;12.18;5.68;;;;;;;6.23;79.54;100589.31;4973040;28;20058;-73
2021/04/10 04:16:00;;;;;;;7.80;5.55;;;;;;;6.12;79.64;100583.66;4953632;28;20074;-73
2021/04/10 04:18:26;;;;;;;12.57;6.00;;;;;;;6.25;80.94;100589.22;4968363;28;20110;-73
2021/04/10 04:20:53;;;;;;;10.65;6.03;;;;;;;6.36;80.48;100580.97;4965502;28;20051;-73
2021/04/10 04:23:20;;;;;;;10.00;5.47;;;;;;;6.21;82.37;100590.28;4967656;28;20125;-73
2021/04/10 04:25:46;;;;;;;15.60;7.07;;;;;;;6.02;83.63;100593.63;4970696;28;20050;-73
2021/04/10 04:28:13;;;;;;;13.02;6.95;;;;;;;5.93;84.26;100596.63;4965130;28;20605;-73
2021/04/10 04:30:40;;;;;;;9.38;5.88;;;;;;;6.00;84.39;100598.09;4966722;28;20137;-73
2021/04/10 04:33:07;;;;;;;12.25;6.65;;;;;;;6.20;84.59;100593.81;4941047;28;20206;-73
2021/04/10 04:35:33;;;;;;;11.77;6.43;;;;;;;6.20;84.51;100593.81;4966629;28;20057;-73
2021/04/10 04:38:01;;;;;;;12.73;6.57;;;;;;;6.13;86.14;100603.69;4967436;28;20062;-73
2021/04/10 04:40:27;;;;;;;12.65;6.85;;;;;;;6.07;85.92;100602.13;4930651;28;20078;-73
2021/04/10 04:42:54;;;;;;;9.35;6.68;;;;;;;5.86;86.98;100612.59;4963697;28;20058;-74
2021/04/10 04:45:21;;;;;;;11.30;6.70;;;;;;;5.97;87.80;100610.41;4963178;28;20105;-73
2021/04/10 04:47:48;;;;;;;12.20;7.28;;;;;;;5.95;87.96;100618.34;4966242;28;20043;-73
2021/04/10 04:50:14;;;;;;;11.23;6.22;;;;;;;5.97;88.09;100624.34;4967442;28;20129;-73
2021/04/10 04:52:41;;;;;;;13.50;8.25;;;;;;;6.09;87.09;100629.09;4951971;28;20118;-73
2021/04/10 04:55:08;;;;;;;10.98;5.80;;;;;;;6.01;86.09;100638.97;4963331;28;20087;-73
2021/04/10 04:57:35;;;;;;;8.15;5.32;;;;;;;5.98;87.77;100627.78;4966152;28;20058;-73
2021/04/10 05:00:03;;;;;;;10.15;4.80;;;;;;;5.99;85.65;100626.88;4954393;28;20067;-73
2021/04/10 05:02:30;;;;;;;11.77;5.25;;;;;;;5.95;83.66;100631.41;4961508;28;20031;-73
2021/04/10 05:04:57;;;;;;;10.98;4.82;;;;;;;5.89;83.52;100641.19;4967592;28;20507;-73
2021/04/10 05:07:24;;;;;;;7.95;3.90;;;;;;;5.90;83.03;100646.38;4966470;28;20129;-73
2021/04/10 05:09:51;;;;;;;9.07;4.20;;;;;;;5.93;82.49;100643.66;5012906;23;20146;-72
2021/04/10 05:12:18;;;;;;;10.48;4.82;;;;;;;5.79;83.53;100648.53;5005665;28;20086;-71
2021/04/10 05:14:45;;;;;;;6.22;3.58;;;;;;;5.72;83.47;100649.69;4982793;28;20068;-72
2021/04/10 05:17:11;;;;;;;7.22;3.88;;;;;;;5.68;84.81;100650.72;5004859;28;20052;-72
2021/04/10 05:19:38;;;;;;;6.20;3.80;;;;;;;5.57;84.26;100648.50;4984245;28;20137;-73
2021/04/10 05:22:06;;;;;;;9.70;4.07;;;;;;;5.58;85.48;100656.31;4984844;28;20060;-71
2021/04/10 05:24:32;;;;;;;6.65;4.05;;;;;;;5.42;86.73;100660.38;4988248;28;20398;-71
2021/04/10 05:26:59;;;;;;;6.22;4.40;;;;;;;5.46;86.38;100661.97;4989080;28;20042;-73
2021/04/10 05:29:26;;;;;;;8.98;4.85;;;;;;;5.37;87.39;100662.31;4991858;28;20050;-72
2021/04/10 05:31:54;;;;;;;9.18;5.20;;;;;;;5.50;86.76;100673.16;4970934;28;20053;-70
2021/04/10 05:34:21;;;;;;;8.90;4.45;;;;;;;5.43;88.30;100671.69;4993260;28;20050;-72
2021/04/10 05:36:48;;;;;;;7.75;4.40;;;;;;;5.65;86.88;100676.97;5009595;28;20054;-71
2021/04/10 05:39:14;;;;;;;6.90;4.85;;;;;;;5.67;88.41;100678.59;4992709;28;20134;-72
2021/04/10 05:41:41;;;;;;;10.00;5.85;;;;;;;5.76;89.46;100677.38;4978090;28;20125;-73
2021/04/10 05:44:08;;;;;;;10.73;6.38;;;;;;;5.72;90.40;100676.69;5004710;28;20066;-72
2021/04/10 05:46:35;;;;;;;11.45;6.05;;;;;;;5.80;90.92;100677.22;5012191;28;20053;-71
2021/04/10 05:49:02;;;;;;;12.45;5.78;;;;;;;5.76;90.55;100680.88;4982510;28;20077;-72
2021/04/10 05:51:28;;;;;;;12.23;6.45;;;;;;;5.69;90.64;100683.78;4998612;28;20045;-72
2021/04/10 05:53:55;;;;;;;11.65;5.95;;;;;;;5.61;90.64;100689.28;4991149;28;20141;-71
2021/04/10 05:56:22;;;;;;;9.50;5.15;;;;;;;5.62;90.37;100690.97;5010069;28;20517;-71
2021/04/10 05:58:49;;;;;;;11.70;5.85;;;;;;;5.55;92.33;100698.19;4991311;28;20389;-70
2021/04/10 06:01:15;;;;;;;11.13;5.75;;;;;;;5.54;92.38;100699.09;4994862;28;20138;-72
2021/04/10 06:03:42;;;;;;;7.93;4.72;;;;;;;5.69;89.15;100696.81;5002705;28;20046;-72
2021/04/10 06:06:11;;;;;;;10.65;5.30;;;;;;;5.59;88.81;100697.19;5004418;28;20546;-71
2021/04/10 06:08:38;;;;;;;11.20;5.45;;;;;;;5.48;89.56;100698.47;4996949;28;20049;-72
2021/04/10 06:11:05;;;;;;;8.48;5.88;;;;;;;5.45;90.02;100701.19;5001183;28;20060;-73
2021/04/10 06:13:31;;;;;;;9.50;5.45;;;;;;;5.49;89.91;100695.81;5008207;28;20085;-72
2021/04/10 06:15:58;;;;;;;11.48;5.90;;;;;;;5.57;89.81;100698.97;5007661;28;20057;-71
2021/04/10 06:18:25;;;;;;;8.27;6.00;;;;;;;5.63;88.67;100697.91;5006440;28;20177;-71
2021/04/10 06:20:51;;;;;;;9.23;5.35;;;;;;;5.60;90.46;100703.25;4977677;28;20129;-72
2021/04/10 06:23:18;;;;;;;8.75;4.90;;;;;;;5.59;89.50;100699.78;5006725;28;20064;-72
2021/04/10 06:25:45;;;;;;;10.52;5.50;;;;;;;5.64;89.86;100704.84;4995532;28;20065;-72
2021/04/10 06:28:12;;;;;;;11.32;5.32;;;;;;;5.66;89.30;100708.22;4994939;28;20075;-72
2021/04/10 06:30:39;;;;;;;10.40;5.55;;;;;;;5.73;89.29;100714.94;5023003;28;20046;-73
2021/04/10 06:33:05;;;;;;;12.82;5.80;;;;;;;5.70;90.70;100712.44;5007514;28;20137;-71
2021/04/10 06:35:32;;;;;;;9.05;5.18;;;;;;;5.91;88.80;100712.53;4973963;28;20041;-72
2021/04/10 06:37:59;;;;;;;11.27;6.63;;;;;;;5.99;87.84;100715.72;5004661;28;20049;-72
2021/04/10 06:40:26;;;;;;;10.60;5.22;;;;;;;5.86;87.99;100715.34;5010397;28;20050;-73
2021/04/10 06:42:54;;;;;;;8.80;5.05;;;;;;;5.77;87.45;100715.69;5002321;28;20056;-73
2021/04/10 06:45:21;;;;;;;11.52;5.50;;;;;;;5.76;88.06;100717.44;4989772;28;20038;-72
2021/04/10 06:47:50;;;;;;;9.82;5.63;;;;;;;5.71;88.56;100721.13;5009545;28;20049;-72
2021/04/10 06:50:17;;;;;;;8.45;4.97;;;;;;;5.81;88.12;100717.28;4984003;28;20136;-71
2021/04/10 06:52:45;;;;;;;10.88;5.97;;;;;;;5.81;89.54;100717.28;5003954;28;20052;-71
2021/04/10 06:55:15;;;;;;;11.88;6.78;;;;;;;5.72;91.62;100720.19;4991485;28;20066;-73
2021/04/10 06:57:48;;;;;;;13.75;6.55;;;;;;;5.46;93.14;100726.41;5016332;28;20085;-72
2021/04/10 07:00:15;;;;;;;14.23;7.15;;;;;;;5.59;93.34;100727.66;4994580;28;20075;-73
2021/04/10 07:02:42;;;;;;;10.30;6.40;;;;;;;5.65;93.62;100726.56;5009877;28;20504;-72
2021/04/10 07:05:10;;;;;;;12.52;7.47;;;;;;;5.68;93.48;100727.31;5001404;28;20160;-71
2021/04/10 07:07:37;;;;;;;12.43;8.07;;;;;;;5.61;94.47;100727.59;5007510;28;20050;-72
2021/04/10 07:10:05;;;;;;;15.63;9.77;;;;;;;5.44;95.67;100729.03;4979231;28;20136;-73
2021/04/10 07:12:32;;;;;;;15.98;9.98;;;;;;;5.52;95.95;100734.84;5008364;28;20048;-73
2021/04/10 07:14:59;;;;;;;12.98;9.10;;;;;;;5.65;94.92;100730.03;5013512;28;20066;-73
2021/04/10 07:17:25;;;;;;;22.15;10.10;;;;;;;5.67;94.08;100741.25;5016159;28;20088;-72
2021/04/10 07:19:52;;;;;;;17.17;9.93;;;;;;;5.54;94.73;100748.72;5008209;28;20126;-72
2021/04/10 07:22:19;;;;;;;14.10;9.65;;;;;;;5.50;94.99;100751.50;4993082;28;20054;-73
2021/04/10 07:24:48;;;;;;;17.33;10.18;;;;;;;5.46;95.14;100753.38;5004214;28;20065;-71
2021/04/10 07:27:25;;;;;;;17.75;10.48;;;;;;;5.42;96.29;100748.31;4994685;28;20146;-72
2021/04/10 07:29:59;;;;;;;15.80;10.82;;;;;;;5.48;95.18;100754.16;5002749;28;20043;-72
2021/04/10 07:32:36;;;;;;;16.08;10.57;;;;;;;5.51;94.87;100753.19;5005272;28;20049;-74
2021/04/10 07:35:10;;;;;;;23.13;11.07;;;;;;;5.68;94.76;100755.22;4998623;28;20106;-73
2021/04/10 07:37:42;;;;;;;15.40;11.32;;;;;;;5.70;94.33;100753.38;5018100;28;20119;-72
2021/04/10 07:40:13;;;;;;;13.80;9.18;;;;;;;5.82;93.45;100751.16;4998419;28;20061;-71
2021/04/10 07:42:41;;;;;;;19.60;9.60;;;;;;;5.75;93.35;100748.81;5026119;28;20141;-72
2021/04/10 07:45:32;;;;;;;24.05;9.45;;;;;;;5.67;94.20;100746.50;4986363;28;20119;-72
2021/04/10 07:48:17;;;;;;;15.68;10.15;;;;;;;5.89;94.29;100757.00;4974702;28;20065;-72
2021/04/10 07:50:44;;;;;;;13.32;9.02;;;;;;;5.94;92.58;100756.84;5003898;28;20064;-72
2021/04/10 07:53:38;;;;;;;15.07;8.95;;;;;;;5.84;93.55;100759.78;5007076;28;20053;-73
2021/04/10 07:56:05;;;;;;;12.85;8.80;;;;;;;6.02;92.63;100758.28;4971714;28;20084;-74
2021/04/10 07:58:33;;;;;;;14.25;8.82;;;;;;;6.07;92.01;100766.78;5008233;28;20165;-76
2021/04/10 08:01:08;;;;;;;19.17;9.50;;;;;;;6.06;91.69;100769.47;4982251;28;20045;-72
2021/04/10 08:03:39;;;;;;;;;;;;;;;6.16;92.29;100777.81;4999057;28;20042;-71
2021/04/10 08:06:09;;;;;;;15.18;8.68;;;;;;;6.21;91.58;100775.88;5011333;28;20507;-73
2021/04/10 08:08:52;;;;;;;18.98;10.35;;;;;;;5.92;92.31;100782.22;5010755;28;20051;-73
2021/04/10 08:11:36;;;;;;;17.55;10.02;;;;;;;5.99;92.70;100783.66;5016594;28;21061;-72
2021/04/10 08:14:11;;;;;;;15.93;8.55;;;;;;;6.18;90.34;100782.09;4993886;28;20096;-73
2021/04/10 08:16:39;;;;;;;12.00;7.70;;;;;;;6.18;90.14;100782.09;4969568;28;20038;-72
2021/04/10 08:19:06;;;;;;;17.92;8.05;;;;;;;6.17;90.02;100792.56;4998757;28;20080;-72
2021/04/10 08:21:33;;;;;;;12.52;7.38;;;;;;;6.00;90.78;100781.03;5001782;28;20054;-72
2021/04/10 08:24:19;;;;;;;15.65;8.63;;;;;;;6.08;92.15;100789.44;5011457;28;20489;-71
2021/04/10 08:26:47;;;;;;;11.65;7.88;;;;;;;6.56;89.08;100795.41;5003287;28;20294;-72
2021/04/10 08:29:13;;;;;;;13.88;6.55;;;;;;;6.55;86.52;100802.41;5009314;28;20465;-72
2021/04/10 08:31:40;;;;;;;19.25;7.43;;;;;;;6.29;86.52;100800.81;4974017;28;20071;-72
2021/04/10 08:34:07;;;;;;;16.95;6.88;;;;;;;6.52;85.93;100806.91;5007944;28;20084;-71
2021/04/10 08:36:36;;;;;;;18.65;6.68;;;;;;;6.54;85.53;100807.72;5008989;28;20579;-73
2021/04/10 08:39:03;;;;;;;14.63;6.78;;;;;;;6.70;84.32;100803.56;4979494;28;20462;-73
2021/04/10 08:41:30;;;;;;;12.43;6.35;;;;;;;6.78;83.33;100805.88;5007902;28;20610;-71
2021/04/10 08:43:57;;;;;;;14.00;6.95;;;;;;;6.90;83.40;100812.41;5012015;28;20247;-71
2021/04/10 08:46:25;;;;;;;14.82;6.53;;;;;;;6.89;82.99;100813.28;4993794;28;20054;-73
2021/04/10 08:48:58;;;;;;;14.50;6.72;;;;;;;7.00;83.46;100814.56;4987825;28;20070;-72
2021/04/10 08:51:31;;;;;;;13.93;5.78;;;;;;;7.22;82.07;100821.53;5024518;28;20049;-72
2021/04/10 08:53:59;;;;;;;13.45;5.75;;;;;;;7.24;82.49;100820.53;4973848;28;20964;-71
2021/04/10 08:56:27;;;;;;;15.10;7.38;;;;;;;7.19;83.05;100824.28;5004029;28;21037;-71
2021/04/10 08:59:11;;;;;;;15.60;6.55;;;;;;;7.45;81.80;100818.78;4983311;28;20076;-72
2021/04/10 09:01:41;;;;;;;10.98;5.82;;;;;;;7.89;80.37;100823.88;4979644;28;20050;-73
2021/04/10 09:04:12;;;;;;;15.02;7.18;;;;;;;7.99;78.71;100829.53;4984047;28;20543;-72
2021/04/10 09:06:38;;;;;;;15.88;6.05;;;;;;;8.09;77.41;100826.44;4987152;28;20117;-72
2021/04/10 09:09:11;;;;;;;14.95;5.38;;;;;;;8.31;76.74;100828.91;4993022;28;20046;-72
2021/04/10 09:11:39;;;;;;;16.60;6.05;;;;;;;8.39;76.18;100833.00;5009102;28;20107;-72
2021/04/10 09:14:06;;;;;;;13.00;5.22;;;;;;;8.24;75.76;100830.13;4987262;28;20136;-72
2021/04/10 09:16:38;;;;;;;9.80;4.68;;;;;;;8.70;74.96;100837.66;5013354;28;21034;-72
2021/04/10 09:19:11;;;;;;;15.05;5.40;;;;;;;9.19;73.92;100841.38;5002679;28;20096;-72
2021/04/10 09:21:47;;;;;;;9.25;4.15;;;;;;;9.74;70.95;100832.47;5007171;28;20042;-72
2021/04/10 09:24:17;;;;;;;;;;;;;;;9.82;68.78;100831.13;4997567;28;20100;-72
2021/04/10 09:26:55;;;;;;;13.68;3.60;;;;;;;10.11;66.51;100826.94;4984462;28;19922;-71
2021/04/10 09:29:22;;;;;;;10.93;3.75;;;;;;;10.42;66.85;100835.00;5017945;28;20053;-72
2021/04/10 09:32:00;;;;;;;11.65;3.67;;;;;;;10.57;64.42;100829.72;5006825;28;20074;-71
2021/04/10 09:34:51;;;;;;;8.82;3.55;;;;;;;9.29;69.11;100831.25;4988148;28;20117;-73
2021/04/10 09:37:21;;;;;;;11.18;4.07;;;;;;;9.99;67.38;100829.38;5009394;28;20050;-71
2021/04/10 09:39:51;;;;;;;13.35;4.32;;;;;;;10.04;67.39;100837.88;5005563;28;20448;-72
2021/04/10 09:45:34;;;;;;;10.07;3.55;;;;;;;10.35;65.17;100835.31;5014030;28;20104;-72
2021/04/10 09:48:04;;;;;;;9.15;3.50;;;;;;;10.76;63.30;100844.47;4997261;28;20052;-71
2021/04/10 09:50:33;;;;;;;11.88;3.40;;;;;;;11.05;62.80;100842.84;5006785;28;20045;-71
2021/04/10 09:53:01;;;;;;;10.98;4.15;;;;;;;11.02;63.84;100845.66;4991443;28;20634;-73
2021/04/10 09:55:31;;;;;;;39.53;12.13;;;;;;;10.59;65.75;100846.28;5005730;28;20122;-72
2021/04/10 09:58:00;;;;;;;11.18;3.92;;;;;;;10.95;62.94;100849.59;4983446;28;20092;-71
2021/04/10 10:00:29;;;;;;;8.65;3.22;;;;;;;10.92;62.74;100850.59;5007416;28;20141;-71
2021/04/10 10:02:57;;;;;;;8.82;3.53;;;;;;;10.28;65.75;100843.66;4998571;28;20053;-74
2021/04/10 10:05:26;;;;;;;10.38;3.55;;;;;;;10.69;62.01;100851.91;4995534;28;20141;-73
2021/04/10 10:07:53;;;;;;;8.68;3.22;;;;;;;10.76;61.31;100850.63;4996428;28;20141;-72
2021/04/10 10:10:21;;;;;;;7.43;3.33;;;;;;;10.92;60.52;100855.88;4988728;28;20056;-71
2021/04/10 10:12:47;;;;;;;9.48;3.70;;;;;;;10.46;63.21;100845.28;5009942;28;20054;-72
2021/04/10 10:15:24;;;;;;;7.90;3.30;;;;;;;10.06;64.41;100846.53;4994830;28;20054;-72
2021/04/10 10:17:50;;;;;;;10.32;3.42;;;;;;;10.75;62.68;100856.81;4977249;28;20693;-72
2021/04/10 10:20:17;;;;;;;9.90;4.20;;;;;;;10.73;62.30;100856.06;5005460;28;20065;-72
2021/04/10 10:22:44;;;;;;;8.88;3.60;;;;;;;10.58;63.08;100855.13;5013932;28;20093;-72
2021/04/10 10:25:12;;;;;;;9.32;3.90;;;;;;;11.01;61.66;100857.97;5003545;28;20148;-72
2021/04/10 10:27:45;;;;;;;10.05;4.05;;;;;;;11.31;60.75;100855.38;5006526;28;20046;-72
2021/04/10 10:30:13;;;;;;;9.40;3.88;;;;;;;11.49;59.31;100863.16;4999762;28;20046;-73
2021/04/10 10:32:51;;;;;;;9.52;3.70;;;;;;;11.59;59.36;100864.28;5011394;28;20076;-72
2021/04/10 10:35:19;;;;;;;10.40;4.00;;;;;;;11.44;58.20;100868.69;4999132;28;20052;-74
2021/04/10 10:37:49;;;;;;;8.57;3.33;;;;;;;11.20;58.74;100870.94;4991693;28;20076;-72
2021/04/10 10:40:20;;;;;;;9.15;3.67;;;;;;;11.31;58.40;100878.25;4998968;28;20137;-72
2021/04/10 10:43:06;;;;;;;12.50;5.45;;;;;;;10.83;60.25;100880.09;4990487;28;20077;-73
2021/04/10 10:45:40;;;;;;;7.85;4.15;;;;;;;10.75;61.02;100880.50;4994132;28;20121;-73
2021/04/10 10:48:34;;;;;;;11.57;4.65;;;;;;;10.52;62.91;100879.13;5001633;28;20070;-72
2021/04/10 10:51:00;;;;;;;8.90;3.60;;;;;;;10.81;60.84;100882.81;4987689;28;20523;-72
2021/04/10 10:53:31;;;;;;;8.60;3.90;;;;;;;11.19;59.87;100889.47;4989872;28;20077;-72
2021/04/10 10:56:11;;;;;;;7.43;4.50;;;;;;;11.49;58.81;100887.72;5001726;28;20045;-71
2021/04/10 10:58:47;;;;;;;10.35;4.07;;;;;;;11.58;58.57;100883.69;5012515;28;20054;-72
2021/04/10 11:01:18;;;;;;;8.25;4.40;;;;;;;11.33;59.16;100886.91;5002985;28;20411;-71
2021/04/10 11:03:49;;;;;;;13.07;4.47;;;;;;;11.49;58.29;100884.25;4992535;28;20054;-73
2021/04/10 11:06:21;;;;;;;11.85;3.90;;;;;;;11.46;57.64;100889.69;4992961;28;20115;-71
2021/04/10 11:08:49;;;;;;;9.57;3.88;;;;;;;11.90;56.27;100887.94;4994736;28;20052;-71
2021/04/10 11:11:16;;;;;;;7.43;3.38;;;;;;;12.19;54.96;100882.66;5003457;23;20066;-82
2021/04/10 11:13:45;;;;;;;6.25;3.60;;;;;;;11.79;56.63;100894.75;4992462;28;20061;-76
2021/04/10 11:16:12;;;;;;;10.63;4.18;;;;;;;10.32;60.08;100896.03;5001354;28;20030;-77
2021/04/10 11:18:39;;;;;;;18.52;4.25;;;;;;;9.93;61.62;100895.47;5003005;28;20046;-81
2021/04/10 11:21:21;;;;;;;11.57;3.22;;;;;;;10.68;59.83;100899.38;5009773;28;20496;-82
2021/04/10 11:24:02;;;;;;;8.65;4.20;;;;;;;11.22;57.28;100897.22;4993477;28;20039;-79
2021/04/10 11:26:49;;;;;;;6.85;3.50;;;;;;;11.59;56.10;100903.84;4999478;28;20055;-79
2021/04/10 11:29:20;;;;;;;11.20;4.13;;;;;;;11.24;56.84;100909.34;4981293;28;20122;-80
2021/04/10 11:32:11;;;;;;;6.35;3.10;;;;;;;11.12;56.74;100913.56;5008533;28;20050;-79
2021/04/10 11:34:47;;;;;;;7.40;3.33;;;;;;;11.45;55.57;100917.84;4997720;28;20039;-78
2021/04/10 11:37:27;;;;;;;8.10;3.65;;;;;;;11.33;55.44;100918.53;5013416;28;20034;-79
2021/04/10 11:39:59;;;;;;;9.60;3.72;;;;;;;10.88;57.28;100915.75;5016802;28;20066;-78